createdAt,value
2022-12-29T00:01:18.251Z,-0.31
2022-12-29T00:03:41.014Z,-0.31
2022-12-29T00:06:03.846Z,-0.27
2022-12-29T00:08:40.806Z,-0.32
2022-12-29T00:11:04.001Z,-0.34
2022-12-29T00:13:45.380Z,-0.35
2022-12-29T00:16:08.358Z,-0.37
2022-12-29T00:18:31.003Z,-0.39
2022-12-29T00:21:14.685Z,-0.37
2022-12-29T00:24:09.786Z,-0.39
2022-12-29T00:26:51.386Z,-0.38
2022-12-29T00:29:32.949Z,-0.39
2022-12-29T00:32:14.423Z,-0.42
2022-12-29T00:34:55.617Z,-0.41
2022-12-29T00:37:18.564Z,-0.32
2022-12-29T00:40:00.187Z,-0.41
2022-12-29T00:42:41.364Z,-0.46
2022-12-29T00:45:04.273Z,-0.41
2022-12-29T00:47:26.968Z,-0.42
2022-12-29T00:49:49.655Z,-0.37
2022-12-29T00:52:14.439Z,-0.42
2022-12-29T00:54:39.166Z,-0.37
2022-12-29T00:57:03.247Z,-0.38
2022-12-29T00:59:27.402Z,-0.52
2022-12-29T01:01:50.338Z,-0.56
2022-12-29T01:04:13.300Z,-0.51
2022-12-29T01:06:37.725Z,-0.55
2022-12-29T01:09:18.767Z,-0.51
2022-12-29T01:11:41.967Z,-0.55
2022-12-29T01:14:04.664Z,-0.46
2022-12-29T01:16:27.330Z,-0.48
2022-12-29T01:18:50.779Z,-0.46
2022-12-29T01:21:14.156Z,-0.37
2022-12-29T01:23:36.947Z,-0.44
2022-12-29T01:26:13.523Z,-0.44
2022-12-29T01:28:39.880Z,-0.45
2022-12-29T01:31:02.849Z,-0.41
2022-12-29T01:33:25.549Z,-0.37
2022-12-29T01:35:48.079Z,-0.45
2022-12-29T01:38:10.915Z,-0.44
2022-12-29T01:40:33.539Z,-0.48
2022-12-29T01:42:56.389Z,-0.45
2022-12-29T01:45:19.501Z,-0.37
2022-12-29T01:48:04.865Z,-0.42
2022-12-29T01:50:40.516Z,-0.55
2022-12-29T01:53:09.668Z,-0.61
2022-12-29T01:55:45.275Z,-0.66
2022-12-29T01:58:08.656Z,-0.66
2022-12-29T02:00:31.459Z,-0.66
2022-12-29T02:02:55.655Z,-0.65
2022-12-29T02:05:33.123Z,-0.64
2022-12-29T02:07:56.195Z,-0.58
2022-12-29T02:10:22.323Z,-0.64
2022-12-29T02:12:46.642Z,-0.56
2022-12-29T02:15:10.373Z,-0.56
2022-12-29T02:17:39.968Z,-0.59
2022-12-29T02:20:19.030Z,-0.64
2022-12-29T02:23:12.321Z,-0.65
2022-12-29T02:25:56.262Z,-0.59
2022-12-29T02:28:48.720Z,-0.59
2022-12-29T02:31:21.152Z,-0.58
2022-12-29T02:34:11.556Z,-0.64
2022-12-29T02:36:53.288Z,-0.64
2022-12-29T02:39:22.153Z,-0.64
2022-12-29T02:42:17.096Z,-0.68
2022-12-29T02:45:02.742Z,-0.70
2022-12-29T02:47:48.115Z,-0.72
2022-12-29T02:50:13.800Z,-0.75
2022-12-29T02:52:50.626Z,-0.75
2022-12-29T02:55:13.306Z,-0.73
2022-12-29T02:57:36.847Z,-0.76
2022-12-29T03:00:08.799Z,-0.77
2022-12-29T03:02:53.925Z,-0.80
2022-12-29T03:05:25.848Z,-0.85
2022-12-29T03:08:17.165Z,-0.83
2022-12-29T03:10:59.782Z,-0.89
2022-12-29T03:13:44.149Z,-0.86
2022-12-29T03:16:21.550Z,-0.85
2022-12-29T03:18:47.481Z,-0.85
2022-12-29T03:21:57.534Z,-0.87
2022-12-29T03:24:26.441Z,-0.86
2022-12-29T03:26:53.875Z,-0.86
2022-12-29T03:29:18.410Z,-0.86
2022-12-29T03:31:43.897Z,-0.87
2022-12-29T03:34:07.730Z,-0.89
2022-12-29T03:36:43.420Z,-0.90
2022-12-29T03:39:13.197Z,-0.89
2022-12-29T03:41:37.857Z,-0.92
2022-12-29T03:44:00.600Z,-0.90
2022-12-29T03:46:23.966Z,-0.90
2022-12-29T03:48:47.188Z,-0.92
2022-12-29T03:51:10.066Z,-0.92
2022-12-29T03:53:32.851Z,-0.89
2022-12-29T03:55:56.468Z,-0.87
2022-12-29T03:58:19.415Z,-0.85
2022-12-29T04:00:58.237Z,-0.90
2022-12-29T04:03:21.009Z,-0.87
2022-12-29T04:05:43.955Z,-0.85
2022-12-29T04:08:06.857Z,-0.80
2022-12-29T04:10:29.630Z,-0.85
2022-12-29T04:12:55.267Z,-0.85
2022-12-29T04:15:19.075Z,-0.86
2022-12-29T04:17:41.749Z,-0.86
2022-12-29T04:20:23.839Z,-0.87
2022-12-29T04:22:47.864Z,-0.90
2022-12-29T04:25:11.197Z,-0.90
2022-12-29T04:27:34.217Z,-0.92
2022-12-29T04:30:23.870Z,-0.90
2022-12-29T04:33:00.363Z,-0.87
2022-12-29T04:35:24.359Z,-0.86
2022-12-29T04:37:47.037Z,-0.85
2022-12-29T04:40:10.460Z,-0.89
2022-12-29T04:42:33.195Z,-0.85
2022-12-29T04:44:56.273Z,-0.82
2022-12-29T04:47:31.975Z,-0.79
2022-12-29T04:50:01.714Z,-0.79
2022-12-29T04:52:37.292Z,-0.80
2022-12-29T04:54:59.957Z,-0.83
2022-12-29T04:57:22.604Z,-0.83
2022-12-29T04:59:49.432Z,-0.86
2022-12-29T05:02:12.212Z,-0.83
2022-12-29T05:04:35.238Z,-0.82
2022-12-29T05:06:59.395Z,-0.82
2022-12-29T05:09:22.440Z,-0.82
2022-12-29T05:11:44.997Z,-0.80
2022-12-29T05:14:07.825Z,-0.83
2022-12-29T05:16:31.788Z,-0.82
2022-12-29T05:18:54.969Z,-0.86
2022-12-29T05:21:17.676Z,-0.85
2022-12-29T05:23:40.901Z,-0.90
2022-12-29T05:26:03.663Z,-0.92
2022-12-29T05:28:46.627Z,-0.93
2022-12-29T05:31:14.029Z,-0.94
2022-12-29T05:33:36.727Z,-0.90
2022-12-29T05:36:05.674Z,-0.92
2022-12-29T05:38:28.489Z,-0.92
2022-12-29T05:40:51.268Z,-0.93
2022-12-29T05:43:37.180Z,-0.93
2022-12-29T05:46:32.477Z,-0.99
2022-12-29T05:49:13.007Z,-1.00
2022-12-29T05:52:13.990Z,-1.00
2022-12-29T05:54:37.443Z,-0.99
2022-12-29T05:57:05.641Z,-0.99
2022-12-29T05:59:29.536Z,-1.01
2022-12-29T06:01:52.935Z,-0.99
2022-12-29T06:04:15.949Z,-0.99
2022-12-29T06:06:39.886Z,-0.93
2022-12-29T06:09:06.819Z,-0.94
2022-12-29T06:11:29.653Z,-0.97
2022-12-29T06:13:54.936Z,-0.99
2022-12-29T06:16:19.629Z,-0.99
2022-12-29T06:18:43.228Z,-0.97
2022-12-29T06:21:06.368Z,-1.00
2022-12-29T06:23:29.470Z,-0.99
2022-12-29T06:25:52.290Z,-1.00
2022-12-29T06:28:15.173Z,-0.99
2022-12-29T06:30:37.897Z,-1.00
2022-12-29T06:33:00.949Z,-0.97
2022-12-29T06:35:24.502Z,-0.99
2022-12-29T06:37:48.244Z,-0.93
2022-12-29T06:40:12.808Z,-0.90
2022-12-29T06:43:08.090Z,-0.87
2022-12-29T06:45:41.373Z,-0.86
2022-12-29T06:48:04.507Z,-0.83
2022-12-29T06:50:27.182Z,-0.80
2022-12-29T06:52:49.834Z,-0.76
2022-12-29T06:55:12.372Z,-0.70
2022-12-29T06:57:34.994Z,-0.65
2022-12-29T06:59:57.743Z,-0.64
2022-12-29T07:02:20.774Z,-0.54
2022-12-29T07:04:43.698Z,-0.51
2022-12-29T07:07:06.312Z,-0.45
2022-12-29T07:09:29.108Z,-0.31
2022-12-29T07:11:51.842Z,-0.32
2022-12-29T07:14:15.588Z,-0.31
2022-12-29T07:16:38.422Z,-0.32
2022-12-29T07:19:01.599Z,-0.19
2022-12-29T07:21:24.546Z,-0.19
2022-12-29T07:23:47.115Z,-0.21
2022-12-29T07:26:13.402Z,-0.18
2022-12-29T07:28:37.046Z,-0.18
2022-12-29T07:31:00.049Z,-0.17
2022-12-29T07:33:22.661Z,-0.04
2022-12-29T07:35:45.307Z,-0.03
2022-12-29T07:38:07.854Z,0.06
2022-12-29T07:40:30.528Z,0.11
2022-12-29T07:42:53.174Z,0.10
2022-12-29T07:45:24.121Z,0.11
2022-12-29T07:47:59.508Z,0.18
2022-12-29T07:50:22.323Z,0.13
2022-12-29T07:52:45.833Z,0.21
2022-12-29T07:55:08.974Z,0.20
2022-12-29T07:57:32.391Z,0.21
2022-12-29T07:59:55.214Z,0.30
2022-12-29T08:02:18.159Z,0.41
2022-12-29T08:04:40.872Z,0.47
2022-12-29T08:07:03.431Z,0.57
2022-12-29T08:09:26.238Z,0.62
2022-12-29T08:11:49.015Z,0.62
2022-12-29T08:14:11.936Z,0.66
2022-12-29T08:16:34.673Z,0.64
2022-12-29T08:19:38.769Z,0.57
2022-12-29T08:22:01.534Z,0.59
2022-12-29T08:24:24.183Z,0.61
2022-12-29T08:26:46.977Z,0.75
2022-12-29T08:29:09.547Z,0.83
2022-12-29T08:31:32.215Z,0.90
2022-12-29T08:33:54.938Z,0.90
2022-12-29T08:36:17.983Z,0.95
2022-12-29T08:38:40.778Z,1.06
2022-12-29T08:41:03.541Z,0.87
2022-12-29T08:43:26.459Z,0.80
2022-12-29T08:45:49.162Z,0.80
2022-12-29T08:48:11.735Z,0.85
2022-12-29T08:50:35.187Z,0.96
2022-12-29T08:52:57.763Z,0.93
2022-12-29T08:55:20.436Z,0.82
2022-12-29T08:57:43.586Z,0.75
2022-12-29T09:00:11.999Z,0.64
2022-12-29T09:02:35.374Z,0.62
2022-12-29T09:05:02.124Z,0.64
2022-12-29T09:07:25.905Z,0.59
2022-12-29T09:09:48.767Z,0.65
2022-12-29T09:12:11.968Z,0.66
2022-12-29T09:14:34.745Z,0.75
2022-12-29T09:17:16.050Z,0.97
2022-12-29T09:19:38.810Z,1.04
2022-12-29T09:22:01.380Z,1.10
2022-12-29T09:24:24.066Z,1.22
2022-12-29T09:26:47.168Z,1.19
2022-12-29T09:29:09.985Z,1.28
2022-12-29T09:31:33.182Z,1.52
2022-12-29T09:33:55.990Z,1.55
2022-12-29T09:36:19.119Z,1.50
2022-12-29T09:38:41.797Z,1.48
2022-12-29T09:41:55.373Z,1.61
2022-12-29T09:44:55.339Z,1.68
2022-12-29T09:47:20.168Z,1.73
2022-12-29T09:49:50.733Z,1.76
2022-12-29T09:52:22.580Z,1.73
2022-12-29T09:55:05.046Z,1.73
2022-12-29T09:57:43.271Z,1.73
2022-12-29T10:00:17.887Z,1.85
2022-12-29T10:02:44.898Z,1.85
2022-12-29T10:05:39.706Z,1.73
2022-12-29T10:08:17.898Z,1.86
2022-12-29T10:10:49.709Z,1.89
2022-12-29T10:14:08.552Z,1.92
2022-12-29T10:16:43.854Z,1.86
2022-12-29T10:19:28.273Z,1.78
2022-12-29T10:22:21.728Z,1.71
2022-12-29T10:24:48.472Z,1.71
2022-12-29T10:27:13.710Z,1.76
2022-12-29T10:29:41.876Z,1.85
2022-12-29T10:32:11.367Z,2.03
2022-12-29T10:34:48.464Z,2.03
2022-12-29T10:37:33.465Z,1.92
2022-12-29T10:39:57.159Z,1.93
2022-12-29T10:42:34.213Z,1.99
2022-12-29T10:44:57.580Z,2.06
2022-12-29T10:47:25.291Z,2.19
2022-12-29T10:49:49.698Z,2.23
2022-12-29T10:52:14.078Z,2.26
2022-12-29T10:54:55.237Z,2.27
2022-12-29T10:57:35.205Z,2.30
2022-12-29T10:59:58.710Z,2.37
2022-12-29T11:02:37.905Z,2.41
2022-12-29T11:05:15.792Z,2.47
2022-12-29T11:07:38.427Z,2.52
2022-12-29T11:10:25.703Z,2.65
2022-12-29T11:13:18.546Z,2.71
2022-12-29T11:15:48.633Z,2.68
2022-12-29T11:18:38.149Z,2.74
2022-12-29T11:21:03.915Z,2.81
2022-12-29T11:23:37.999Z,2.84
2022-12-29T11:26:07.035Z,2.92
2022-12-29T11:28:32.938Z,2.93
2022-12-29T11:31:02.622Z,2.99
2022-12-29T11:33:32.402Z,3.07
2022-12-29T11:36:00.134Z,3.05
2022-12-29T11:38:28.453Z,3.06
2022-12-29T11:40:51.691Z,3.06
2022-12-29T11:43:34.556Z,3.19
2022-12-29T11:45:57.946Z,3.36
2022-12-29T11:48:22.391Z,3.34
2022-12-29T11:50:52.890Z,3.31
2022-12-29T11:53:21.169Z,3.40
2022-12-29T11:55:57.108Z,3.43
2022-12-29T11:58:19.818Z,3.47
2022-12-29T12:00:43.568Z,3.53
2022-12-29T12:03:20.393Z,3.60
2022-12-29T12:05:57.683Z,3.70
2022-12-29T12:08:24.305Z,3.74
2022-12-29T12:11:09.626Z,3.73
2022-12-29T12:13:57.030Z,3.65
2022-12-29T12:16:29.437Z,3.71
2022-12-29T12:19:13.351Z,3.67
2022-12-29T12:21:45.552Z,3.71
2022-12-29T12:24:19.254Z,3.81
2022-12-29T12:26:59.825Z,3.82
2022-12-29T12:30:04.137Z,3.85
2022-12-29T12:32:49.914Z,3.93
2022-12-29T12:35:22.186Z,3.82
2022-12-29T12:38:14.516Z,3.81
2022-12-29T12:40:56.479Z,3.82
2022-12-29T12:44:00.602Z,3.84
2022-12-29T12:46:48.043Z,3.85
2022-12-29T12:49:47.950Z,3.77
2022-12-29T12:52:48.311Z,3.81
2022-12-29T12:55:31.646Z,3.85
2022-12-29T12:58:13.303Z,3.86
2022-12-29T13:01:06.849Z,3.88
2022-12-29T13:03:48.503Z,3.93
2022-12-29T13:06:21.851Z,4.02
2022-12-29T13:09:09.087Z,4.09
2022-12-29T13:11:57.054Z,4.12
2022-12-29T13:14:22.451Z,4.13
2022-12-29T13:17:00.229Z,4.24
2022-12-29T13:19:48.514Z,4.19
2022-12-29T13:22:26.370Z,4.20
2022-12-29T13:24:57.978Z,4.24
2022-12-29T13:27:38.699Z,4.23
2022-12-29T13:30:05.541Z,4.26
2022-12-29T13:32:38.878Z,4.23
2022-12-29T13:35:01.484Z,4.30
2022-12-29T13:37:28.688Z,4.26
2022-12-29T13:40:00.267Z,4.19
2022-12-29T13:42:28.835Z,4.13
2022-12-29T13:45:01.281Z,4.13
2022-12-29T13:47:26.711Z,4.12
2022-12-29T13:49:50.671Z,4.13
2022-12-29T13:52:22.373Z,4.02
2022-12-29T13:54:59.322Z,4.02
2022-12-29T13:57:40.424Z,3.92
2022-12-29T14:00:12.104Z,3.82
2022-12-29T14:03:05.653Z,3.74
2022-12-29T14:05:31.297Z,3.71
2022-12-29T14:08:03.328Z,3.58
2022-12-29T14:10:39.239Z,3.58
2022-12-29T14:13:14.174Z,3.50
2022-12-29T14:15:43.605Z,3.41
2022-12-29T14:18:12.848Z,3.27
2022-12-29T14:20:40.903Z,3.23
2022-12-29T14:23:09.379Z,3.19
2022-12-29T14:26:01.634Z,3.15
2022-12-29T14:28:32.266Z,3.07
2022-12-29T14:30:58.105Z,3.06
2022-12-29T14:33:23.050Z,2.96
2022-12-29T14:35:50.495Z,2.92
2022-12-29T14:38:22.049Z,2.86
2022-12-29T14:40:45.079Z,2.81
2022-12-29T14:43:14.857Z,2.79
2022-12-29T14:45:40.716Z,2.68
2022-12-29T14:48:33.354Z,2.65
2022-12-29T14:50:56.609Z,2.58
2022-12-29T14:53:43.139Z,2.52
2022-12-29T14:56:06.097Z,2.45
2022-12-29T14:58:33.205Z,2.48
2022-12-29T15:00:57.141Z,2.40
2022-12-29T15:03:47.111Z,2.38
2022-12-29T15:06:12.813Z,2.42
2022-12-29T15:08:44.940Z,2.37
2022-12-29T15:11:16.204Z,2.30
2022-12-29T15:13:45.813Z,2.21
2022-12-29T15:16:31.416Z,2.16
2022-12-29T15:18:54.926Z,2.14
2022-12-29T15:21:21.261Z,2.10
2022-12-29T15:23:46.093Z,2.03
2022-12-29T15:26:09.767Z,2.07
2022-12-29T15:28:45.140Z,2.07
2022-12-29T15:31:14.101Z,1.98
2022-12-29T15:33:41.540Z,1.96
2022-12-29T15:36:10.602Z,1.96
2022-12-29T15:38:38.766Z,1.87
2022-12-29T15:41:16.532Z,1.83
2022-12-29T15:44:06.955Z,1.86
2022-12-29T15:46:32.469Z,1.83
2022-12-29T15:48:55.255Z,1.78
2022-12-29T15:51:29.579Z,1.73
2022-12-29T15:53:53.177Z,1.73
2022-12-29T15:56:15.890Z,1.73
2022-12-29T15:58:52.251Z,1.76
2022-12-29T16:01:20.572Z,1.83
2022-12-29T16:03:43.456Z,1.91
2022-12-29T16:06:36.526Z,1.81
2022-12-29T16:09:00.614Z,1.83
2022-12-29T16:11:28.748Z,1.85
2022-12-29T16:13:53.466Z,1.83
2022-12-29T16:16:21.524Z,1.78
2022-12-29T16:18:45.251Z,1.73
2022-12-29T16:21:21.033Z,1.68
2022-12-29T16:23:47.940Z,1.61
2022-12-29T16:26:18.303Z,1.59
2022-12-29T16:28:45.181Z,1.54
2022-12-29T16:31:19.427Z,1.51
2022-12-29T16:33:47.916Z,1.51
2022-12-29T16:36:30.943Z,1.51
2022-12-29T16:39:16.325Z,1.56
2022-12-29T16:41:39.058Z,1.51
2022-12-29T16:44:33.919Z,1.45
2022-12-29T16:47:04.159Z,1.43
2022-12-29T16:49:27.881Z,1.38
2022-12-29T16:51:52.033Z,1.34
2022-12-29T16:54:22.823Z,1.34
2022-12-29T16:56:46.226Z,1.34
2022-12-29T16:59:47.143Z,1.38
2022-12-29T17:02:16.520Z,1.41
2022-12-29T17:04:39.166Z,1.41
2022-12-29T17:07:01.877Z,1.34
2022-12-29T17:09:29.552Z,1.30
2022-12-29T17:12:00.298Z,1.30
2022-12-29T17:14:39.653Z,1.23
2022-12-29T17:17:04.618Z,1.14
2022-12-29T17:19:38.762Z,1.12
2022-12-29T17:22:02.319Z,1.06
2022-12-29T17:24:25.158Z,1.03
2022-12-29T17:26:54.503Z,0.96
2022-12-29T17:29:32.169Z,0.95
2022-12-29T17:31:54.909Z,0.96
2022-12-29T17:34:18.031Z,0.96
2022-12-29T17:36:40.602Z,0.95
2022-12-29T17:39:03.124Z,0.95
2022-12-29T17:41:26.523Z,0.90
2022-12-29T17:43:49.136Z,0.87
2022-12-29T17:46:12.370Z,0.85
2022-12-29T17:48:35.542Z,0.85
2022-12-29T17:50:58.583Z,0.87
2022-12-29T17:53:27.929Z,0.87
2022-12-29T17:55:50.849Z,0.85
2022-12-29T17:58:26.722Z,0.83
2022-12-29T18:00:52.618Z,0.87
2022-12-29T18:03:21.088Z,0.90
2022-12-29T18:05:44.732Z,0.89
2022-12-29T18:08:10.426Z,0.92
2022-12-29T18:10:33.063Z,0.90
2022-12-29T18:12:59.878Z,0.89
2022-12-29T18:15:26.011Z,0.93
2022-12-29T18:17:48.912Z,0.96
2022-12-29T18:20:11.706Z,0.92
2022-12-29T18:22:34.619Z,0.87
2022-12-29T18:24:57.398Z,0.87
2022-12-29T18:27:22.308Z,0.82
2022-12-29T18:29:46.845Z,0.82
2022-12-29T18:32:13.001Z,0.83
2022-12-29T18:34:35.624Z,0.76
2022-12-29T18:36:59.940Z,0.70
2022-12-29T18:39:28.214Z,0.70
2022-12-29T18:41:52.276Z,0.68
2022-12-29T18:44:14.919Z,0.66
2022-12-29T18:46:37.585Z,0.62
2022-12-29T18:49:00.246Z,0.69
2022-12-29T18:51:24.631Z,0.64
2022-12-29T18:53:47.432Z,0.62
2022-12-29T18:56:10.063Z,0.61
2022-12-29T18:58:34.334Z,0.58
2022-12-29T19:01:22.515Z,0.57
2022-12-29T19:03:45.648Z,0.52
2022-12-29T19:06:08.253Z,0.49
2022-12-29T19:08:30.942Z,0.48
2022-12-29T19:10:53.780Z,0.47
2022-12-29T19:13:23.742Z,0.45
2022-12-29T19:15:47.072Z,0.44
2022-12-29T19:18:43.048Z,0.42
2022-12-29T19:20:57.473Z,0.42
2022-12-29T19:23:23.357Z,0.41
2022-12-29T19:25:47.010Z,0.51
2022-12-29T19:28:17.948Z,0.48
2022-12-29T19:30:40.789Z,0.49
2022-12-29T19:33:09.707Z,0.47
2022-12-29T19:35:32.908Z,0.48
2022-12-29T19:37:55.975Z,0.48
2022-12-29T19:40:22.510Z,0.41
2022-12-29T19:42:45.562Z,0.40
2022-12-29T19:45:13.244Z,0.40
2022-12-29T19:47:36.288Z,0.38
2022-12-29T19:50:00.990Z,0.37
2022-12-29T19:52:25.802Z,0.45
2022-12-29T19:54:48.391Z,0.52
2022-12-29T19:57:11.036Z,0.48
2022-12-29T19:59:33.710Z,0.49
2022-12-29T20:01:56.506Z,0.49
2022-12-29T20:04:19.323Z,0.48
2022-12-29T20:06:42.094Z,0.48
2022-12-29T20:09:04.799Z,0.44
2022-12-29T20:11:27.450Z,0.45
2022-12-29T20:13:50.003Z,0.42
2022-12-29T20:16:16.365Z,0.44
2022-12-29T20:18:40.754Z,0.45
2022-12-29T20:21:09.130Z,0.47
2022-12-29T20:23:32.745Z,0.47
2022-12-29T20:25:57.510Z,0.45
2022-12-29T20:28:20.162Z,0.41
2022-12-29T20:30:43.011Z,0.44
2022-12-29T20:33:08.323Z,0.41
2022-12-29T20:35:31.579Z,0.40
2022-12-29T20:37:54.348Z,0.40
2022-12-29T20:40:17.142Z,0.37
2022-12-29T20:42:39.751Z,0.34
2022-12-29T20:45:02.282Z,0.32
2022-12-29T20:47:25.226Z,0.32
2022-12-29T20:49:48.165Z,0.37
2022-12-29T20:52:10.775Z,0.25
2022-12-29T20:54:38.775Z,0.24
2022-12-29T20:57:03.552Z,0.25
2022-12-29T20:59:27.853Z,0.30
2022-12-29T21:01:51.323Z,0.37
2022-12-29T21:04:13.966Z,0.38
2022-12-29T21:06:37.231Z,0.38
2022-12-29T21:09:00.443Z,0.42
2022-12-29T21:11:23.271Z,0.49
2022-12-29T21:13:45.889Z,0.54
2022-12-29T21:16:11.556Z,0.62
2022-12-29T21:18:34.759Z,0.73
2022-12-29T21:21:06.996Z,0.85
2022-12-29T21:23:29.916Z,0.82
2022-12-29T21:25:53.765Z,0.92
2022-12-29T21:28:16.393Z,1.03
2022-12-29T21:30:39.504Z,0.99
2022-12-29T21:33:02.200Z,0.96
2022-12-29T21:35:24.723Z,0.96
2022-12-29T21:37:48.021Z,0.95
2022-12-29T21:40:10.874Z,0.99
2022-12-29T21:42:34.337Z,1.00
2022-12-29T21:45:20.152Z,0.96
2022-12-29T21:48:02.593Z,0.97
2022-12-29T21:50:25.256Z,0.97
2022-12-29T21:52:47.937Z,1.01
2022-12-29T21:55:10.658Z,1.03
2022-12-29T21:57:52.117Z,1.04
2022-12-29T22:00:34.137Z,1.04
2022-12-29T22:03:22.602Z,1.04
2022-12-29T22:06:04.426Z,1.03
2022-12-29T22:08:45.935Z,1.08
2022-12-29T22:11:27.833Z,1.08
2022-12-29T22:13:55.702Z,1.10
2022-12-29T22:16:18.647Z,1.10
2022-12-29T22:18:42.410Z,1.14
2022-12-29T22:21:10.924Z,1.30
2022-12-29T22:23:34.091Z,1.33
2022-12-29T22:25:56.900Z,1.34
2022-12-29T22:28:19.806Z,1.44
2022-12-29T22:30:43.106Z,1.45
2022-12-29T22:33:05.874Z,1.47
2022-12-29T22:35:28.562Z,1.48
2022-12-29T22:37:51.356Z,1.52
2022-12-29T22:40:14.015Z,1.58
2022-12-29T22:42:37.743Z,1.56
2022-12-29T22:45:00.366Z,1.61
2022-12-29T22:47:23.164Z,1.64
2022-12-29T22:49:45.902Z,1.66
2022-12-29T22:52:08.726Z,1.78
2022-12-29T22:54:31.967Z,1.79
2022-12-29T22:56:54.698Z,1.91
2022-12-29T22:59:17.542Z,1.79
2022-12-29T23:01:41.522Z,1.78
2022-12-29T23:04:44.231Z,1.82
2022-12-29T23:06:47.574Z,1.81
2022-12-29T23:09:16.749Z,1.83
2022-12-29T23:11:41.020Z,1.95
2022-12-29T23:14:03.547Z,1.95
2022-12-29T23:16:26.906Z,1.92
2022-12-29T23:18:50.300Z,1.93
2022-12-29T23:21:14.200Z,1.98
2022-12-29T23:24:04.049Z,1.98
2022-12-29T23:26:30.198Z,2.00
2022-12-29T23:28:59.677Z,2.03
2022-12-29T23:31:24.442Z,2.07
2022-12-29T23:33:47.242Z,2.16
2022-12-29T23:36:10.482Z,2.14
2022-12-29T23:38:33.317Z,2.17
2022-12-29T23:40:56.112Z,2.20
2022-12-29T23:43:18.759Z,2.26
2022-12-29T23:45:46.073Z,2.27
2022-12-29T23:48:11.711Z,2.27
2022-12-29T23:50:34.379Z,2.26
2022-12-29T23:52:57.444Z,2.21
2022-12-29T23:55:20.023Z,2.23
2022-12-29T23:57:42.759Z,2.23
